Time;durP1;ratioP1;P1;durP2;ratioP2;P2;SDS_P1;SDS_P2;PMS_P1;PMS_P2;Temp;Humidity;BMP_temperature;BMP_pressure;BME280_temperature;BME280_humidity;BME280_pressure;Samples;Min_cycle;Max_cycle;Signal;HPM_P1;HPM_P2
2021/09/07 00:01:49;;;;;;;18.57;14.63;;;19.10;99.90;;;;;;5002401;28;20418;-70
2021/09/07 00:04:14;;;;;;;17.53;15.47;;;19.00;99.90;;;;;;5004021;28;20422;-70
2021/09/07 00:06:40;;;;;;;15.53;14.00;;;19.00;99.90;;;;;;5000995;28;20591;-70
2021/09/07 00:09:06;;;;;;;17.03;14.53;;;19.00;99.90;;;;;;5004510;28;20237;-70
2021/09/07 00:11:32;;;;;;;15.90;14.40;;;19.00;99.90;;;;;;5003098;28;20180;-69
2021/09/07 00:13:58;;;;;;;16.67;15.13;;;18.90;99.90;;;;;;5003324;28;20193;-70
2021/09/07 00:16:23;;;;;;;16.10;14.40;;;18.90;99.90;;;;;;4997665;28;20434;-71
2021/09/07 00:18:49;;;;;;;15.23;13.63;;;18.90;99.90;;;;;;5004393;28;20643;-69
2021/09/07 00:21:15;;;;;;;16.57;14.63;;;18.90;99.90;;;;;;4996947;28;20217;-70
2021/09/07 00:23:41;;;;;;;16.03;14.33;;;18.80;99.90;;;;;;4965714;28;20184;-70
2021/09/07 00:26:06;;;;;;;16.60;14.93;;;18.80;99.90;;;;;;5001855;28;20186;-73
2021/09/07 00:28:32;;;;;;;15.43;13.83;;;18.80;99.90;;;;;;5003623;28;20190;-70
2021/09/07 00:30:58;;;;;;;18.30;15.53;;;18.80;99.90;;;;;;5001877;28;20191;-71
2021/09/07 00:33:24;;;;;;;15.90;14.23;;;18.80;99.90;;;;;;4995527;28;20182;-70
2021/09/07 00:35:50;;;;;;;15.13;13.53;;;18.80;99.90;;;;;;5004327;28;20589;-70
2021/09/07 00:38:16;;;;;;;17.77;15.97;;;18.70;99.90;;;;;;5011200;28;20410;-70
2021/09/07 00:40:41;;;;;;;16.10;14.47;;;18.70;99.90;;;;;;5011661;28;20206;-70
2021/09/07 00:43:07;;;;;;;15.87;14.07;;;18.70;99.90;;;;;;5012559;28;20187;-69
2021/09/07 00:45:33;;;;;;;14.87;13.40;;;18.70;99.90;;;;;;5011040;28;20175;-70
2021/09/07 00:47:58;;;;;;;14.70;13.30;;;18.70;99.90;;;;;;5010064;28;20191;-70
2021/09/07 00:50:24;;;;;;;15.53;13.97;;;18.70;99.90;;;;;;5011676;28;20521;-70
2021/09/07 00:52:50;;;;;;;16.77;14.33;;;18.70;99.90;;;;;;5013128;28;20175;-70
2021/09/07 00:55:17;;;;;;;15.00;13.60;;;18.60;99.90;;;;;;5011942;28;20186;-70
2021/09/07 00:57:45;;;;;;;14.60;13.20;;;18.60;99.90;;;;;;5010926;28;20510;-70
2021/09/07 01:00:11;;;;;;;15.50;13.90;;;18.60;99.90;;;;;;5012729;28;20965;-70
2021/09/07 01:02:38;;;;;;;14.97;13.57;;;18.60;99.90;;;;;;5012578;28;20414;-70
2021/09/07 01:05:06;;;;;;;14.80;13.30;;;18.60;99.90;;;;;;5013081;28;20421;-70
2021/09/07 01:07:33;;;;;;;15.13;13.63;;;18.60;99.90;;;;;;5011810;28;20436;-70
2021/09/07 01:10:00;;;;;;;14.57;13.07;;;18.60;99.90;;;;;;5013108;28;20505;-70
2021/09/07 01:12:26;;;;;;;16.23;14.47;;;18.50;99.90;;;;;;5011140;28;20493;-70
2021/09/07 01:14:52;;;;;;;15.40;14.00;;;18.60;99.90;;;;;;5012205;28;20501;-70
2021/09/07 01:17:19;;;;;;;15.60;14.20;;;18.50;99.90;;;;;;5011571;28;20438;-70
2021/09/07 01:19:47;;;;;;;16.40;14.70;;;18.50;99.90;;;;;;5012828;28;20214;-70
2021/09/07 01:22:13;;;;;;;15.03;13.53;;;18.60;99.90;;;;;;5012600;28;20418;-70
2021/09/07 01:24:40;;;;;;;14.73;13.20;;;18.50;99.90;;;;;;5010330;28;21171;-70
2021/09/07 01:27:06;;;;;;;16.17;14.43;;;18.50;99.90;;;;;;5012822;28;20402;-70
2021/09/07 01:29:37;;;;;;;14.37;12.90;;;18.50;99.90;;;;;;5011807;28;20504;-70
2021/09/07 01:32:04;;;;;;;14.70;12.87;;;18.40;99.90;;;;;;5012801;28;20406;-70
2021/09/07 01:34:30;;;;;;;15.40;13.13;;;18.40;99.90;;;;;;5010863;28;20418;-70
2021/09/07 01:36:56;;;;;;;15.37;12.93;;;18.40;99.90;;;;;;5012700;28;20453;-70
2021/09/07 01:39:23;;;;;;;14.97;13.37;;;18.40;99.90;;;;;;5012292;28;20179;-77
2021/09/07 01:41:49;;;;;;;15.03;13.60;;;18.30;99.90;;;;;;5011992;28;20480;-70
2021/09/07 01:44:15;;;;;;;15.50;13.87;;;18.40;99.90;;;;;;5012605;28;20425;-70
2021/09/07 01:46:41;;;;;;;14.03;12.57;;;18.30;99.90;;;;;;5011875;28;20458;-70
2021/09/07 01:49:09;;;;;;;14.33;12.50;;;18.30;99.90;;;;;;5012840;28;20445;-70
2021/09/07 01:51:36;;;;;;;14.47;13.07;;;18.30;99.90;;;;;;5011401;28;20183;-71
2021/09/07 01:54:03;;;;;;;16.57;13.40;;;18.20;99.90;;;;;;5011567;28;20488;-70
2021/09/07 01:56:29;;;;;;;17.17;13.27;;;18.20;99.90;;;;;;5010570;28;20448;-70
2021/09/07 01:58:54;;;;;;;14.80;12.63;;;18.20;99.90;;;;;;5012980;28;20878;-70
2021/09/07 02:01:20;;;;;;;15.87;14.17;;;18.20;99.90;;;;;;5012106;28;20635;-69
2021/09/07 02:03:46;;;;;;;15.43;13.83;;;18.10;99.90;;;;;;5011462;28;20206;-70
2021/09/07 02:06:11;;;;;;;14.80;13.27;;;18.10;99.90;;;;;;5012374;28;20256;-69
2021/09/07 02:08:37;;;;;;;15.37;13.97;;;18.10;99.90;;;;;;5011356;28;20254;-70
2021/09/07 02:11:03;;;;;;;17.17;13.30;;;18.10;99.90;;;;;;5012240;28;20211;-70
2021/09/07 02:13:29;;;;;;;13.73;12.33;;;18.10;99.90;;;;;;5010354;28;20182;-70
2021/09/07 02:15:54;;;;;;;14.77;13.17;;;18.10;99.90;;;;;;5012140;28;20688;-70
2021/09/07 02:18:20;;;;;;;27.03;12.93;;;18.10;99.90;;;;;;5011004;28;20175;-70
2021/09/07 02:20:46;;;;;;;15.73;12.60;;;18.10;99.90;;;;;;5011675;28;20206;-70
2021/09/07 02:23:11;;;;;;;14.57;13.17;;;18.10;99.90;;;;;;5011971;28;20183;-69
2021/09/07 02:25:37;;;;;;;14.23;12.80;;;18.10;99.90;;;;;;5011320;28;20181;-70
2021/09/07 02:28:03;;;;;;;15.97;14.40;;;18.10;99.90;;;;;;5012220;28;20182;-70
2021/09/07 02:30:29;;;;;;;14.87;13.37;;;18.00;99.90;;;;;;5011090;28;20186;-70
2021/09/07 02:32:59;;;;;;;15.80;14.20;;;18.10;99.90;;;;;;5027442;28;20179;-70
2021/09/07 02:35:28;;;;;;;14.80;13.40;;;18.00;99.90;;;;;;5017288;28;20457;-77
2021/09/07 02:37:54;;;;;;;15.67;14.00;;;18.10;99.90;;;;;;5031558;28;20505;-70
2021/09/07 02:40:20;;;;;;;17.00;13.43;;;18.10;99.90;;;;;;5014279;28;20925;-70
2021/09/07 02:42:46;;;;;;;14.93;13.43;;;18.10;99.90;;;;;;5020293;28;20179;-70
2021/09/07 02:45:11;;;;;;;15.20;13.63;;;18.10;99.90;;;;;;4994663;28;20777;-70
2021/09/07 02:47:40;;;;;;;16.30;14.60;;;18.10;99.90;;;;;;4993226;28;20537;-70
2021/09/07 02:50:12;;;;;;;15.80;13.47;;;18.10;99.90;;;;;;5011985;28;20278;-69
2021/09/07 02:52:38;;;;;;;16.17;14.50;;;18.20;99.90;;;;;;5011472;28;20525;-70
2021/09/07 02:55:05;;;;;;;16.20;14.70;;;18.20;99.90;;;;;;5011923;28;20464;-70
2021/09/07 02:57:31;;;;;;;15.27;13.77;;;18.20;99.90;;;;;;4993170;28;20430;-70
2021/09/07 02:59:57;;;;;;;18.03;15.13;;;18.20;99.90;;;;;;5011808;28;20544;-70
2021/09/07 03:02:24;;;;;;;23.10;13.67;;;18.10;99.90;;;;;;5012942;28;20560;-70
2021/09/07 03:04:50;;;;;;;15.77;14.07;;;18.20;99.90;;;;;;5014794;28;20187;-70
2021/09/07 03:07:18;;;;;;;15.80;14.43;;;18.20;99.90;;;;;;5015182;28;20410;-68
2021/09/07 03:09:45;;;;;;;15.07;13.47;;;18.20;99.90;;;;;;4996560;28;20418;-70
2021/09/07 03:12:10;;;;;;;15.07;13.67;;;18.20;99.90;;;;;;5015226;28;20513;-69
2021/09/07 03:14:37;;;;;;;15.77;14.13;;;18.20;99.90;;;;;;5013948;28;20985;-70
2021/09/07 03:17:03;;;;;;;16.87;15.10;;;18.10;99.90;;;;;;5014462;28;20422;-69
2021/09/07 03:19:28;;;;;;;16.07;14.40;;;18.10;99.90;;;;;;5013890;28;20484;-77
2021/09/07 03:21:54;;;;;;;14.93;13.33;;;18.10;99.90;;;;;;5014485;28;20710;-70
2021/09/07 03:24:20;;;;;;;15.10;13.53;;;18.00;99.90;;;;;;5014862;28;20183;-69
2021/09/07 03:26:46;;;;;;;15.93;14.33;;;18.00;99.90;;;;;;5014027;28;20960;-69
2021/09/07 03:29:11;;;;;;;15.13;13.53;;;18.10;99.90;;;;;;5014964;28;20221;-70
2021/09/07 03:31:37;;;;;;;15.77;14.07;;;18.10;99.90;;;;;;5014431;28;20211;-69
2021/09/07 03:34:04;;;;;;;15.30;13.80;;;18.10;99.90;;;;;;5014824;28;20207;-69
2021/09/07 03:36:30;;;;;;;14.23;12.73;;;18.10;99.90;;;;;;5014010;28;20306;-70
2021/09/07 03:38:55;;;;;;;16.57;14.67;;;18.20;99.90;;;;;;5015019;28;20525;-69
2021/09/07 03:41:21;;;;;;;14.47;13.00;;;18.20;99.90;;;;;;5015109;28;20458;-69
2021/09/07 03:43:47;;;;;;;18.57;16.97;;;18.20;99.90;;;;;;5014565;28;20441;-69
2021/09/07 03:46:13;;;;;;;15.43;13.83;;;18.20;99.90;;;;;;5015145;28;20175;-69
2021/09/07 03:48:39;;;;;;;14.80;13.40;;;18.20;99.90;;;;;;5014217;28;20410;-69
2021/09/07 03:51:05;;;;;;;16.60;14.87;;;18.20;99.90;;;;;;5014367;28;20186;-69
2021/09/07 03:53:31;;;;;;;16.20;14.03;;;18.20;99.90;;;;;;5013487;28;20418;-78
2021/09/07 03:55:58;;;;;;;15.27;13.67;;;18.30;99.90;;;;;;5014440;28;20179;-69
2021/09/07 03:58:23;;;;;;;15.50;13.90;;;18.30;99.90;;;;;;5014818;28;20437;-69
2021/09/07 04:00:49;;;;;;;16.10;14.50;;;18.30;99.90;;;;;;5013847;28;20493;-70
2021/09/07 04:03:17;;;;;;;15.27;13.77;;;18.30;99.90;;;;;;5014753;28;20190;-69
2021/09/07 04:05:43;;;;;;;14.30;12.90;;;18.30;99.90;;;;;;5013754;28;20269;-69
2021/09/07 04:08:10;;;;;;;15.50;14.00;;;18.40;99.90;;;;;;5014502;28;20805;-69
2021/09/07 04:10:35;;;;;;;14.77;13.27;;;18.40;99.90;;;;;;5014005;28;20525;-70
2021/09/07 04:13:01;;;;;;;15.07;13.50;;;18.40;99.90;;;;;;5014278;28;20501;-69
2021/09/07 04:15:27;;;;;;;15.43;13.60;;;18.40;99.90;;;;;;5014480;28;20673;-69
2021/09/07 04:17:52;;;;;;;14.50;13.10;;;18.30;99.90;;;;;;5013430;28;20171;-70
2021/09/07 04:20:18;;;;;;;16.80;14.20;;;18.30;99.90;;;;;;4994864;28;20223;-69
2021/09/07 04:22:44;;;;;;;16.47;14.87;;;18.30;99.90;;;;;;4994205;28;20176;-69
2021/09/07 04:25:10;;;;;;;14.70;13.20;;;18.20;99.90;;;;;;4993691;28;20180;-69
2021/09/07 04:27:37;;;;;;;16.83;15.03;;;18.20;99.90;;;;;;4994079;28;20183;-69
2021/09/07 04:30:04;;;;;;;15.90;12.40;;;18.10;99.90;;;;;;4994613;28;20411;-69
2021/09/07 04:32:30;;;;;;;15.10;13.50;;;18.20;99.90;;;;;;4995592;28;20752;-80
2021/09/07 04:34:56;;;;;;;15.73;14.13;;;18.10;99.90;;;;;;5007253;28;20417;-69
2021/09/07 04:37:21;;;;;;;15.90;14.40;;;18.10;99.90;;;;;;5033895;28;20467;-69
2021/09/07 04:39:50;;;;;;;15.10;13.50;;;18.10;99.90;;;;;;5033138;28;20179;-69
2021/09/07 04:42:16;;;;;;;14.70;13.20;;;18.10;99.90;;;;;;5033783;28;20171;-69
2021/09/07 04:44:42;;;;;;;13.87;12.47;;;18.10;99.90;;;;;;5032969;28;20452;-69
2021/09/07 04:47:08;;;;;;;15.27;13.67;;;18.10;99.90;;;;;;5003716;28;20451;-69
2021/09/07 04:49:34;;;;;;;16.80;14.13;;;18.10;99.90;;;;;;5012314;28;20183;-69
2021/09/07 04:51:59;;;;;;;15.17;13.50;;;18.20;99.90;;;;;;5013824;28;20414;-69
2021/09/07 04:54:25;;;;;;;14.37;12.87;;;18.20;99.90;;;;;;5013555;28;20190;-69
2021/09/07 04:56:51;;;;;;;16.70;14.83;;;18.10;99.90;;;;;;5012985;28;20179;-69
2021/09/07 04:59:17;;;;;;;15.50;13.80;;;18.10;99.90;;;;;;5013633;28;20430;-69
2021/09/07 05:01:43;;;;;;;14.03;12.53;;;18.20;99.90;;;;;;5012823;28;20207;-69
2021/09/07 05:04:09;;;;;;;17.77;14.47;;;18.20;99.90;;;;;;5013830;28;20186;-69
2021/09/07 05:06:34;;;;;;;14.57;12.63;;;18.20;99.90;;;;;;5012976;28;20406;-70
2021/09/07 05:09:00;;;;;;;15.10;12.80;;;18.20;99.90;;;;;;5013452;28;20190;-69
2021/09/07 05:11:26;;;;;;;14.63;12.93;;;18.20;99.90;;;;;;5013496;28;20183;-69
2021/09/07 05:13:52;;;;;;;14.80;12.80;;;18.20;99.90;;;;;;5012590;28;20695;-69
2021/09/07 05:16:17;;;;;;;14.77;12.60;;;18.30;99.90;;;;;;5013204;28;20179;-69
2021/09/07 05:18:43;;;;;;;14.50;12.37;;;18.30;99.90;;;;;;5012768;28;20198;-69
2021/09/07 05:21:09;;;;;;;19.20;12.93;;;18.30;99.90;;;;;;5013295;28;20228;-69
2021/09/07 05:23:35;;;;;;;15.80;13.50;;;18.30;99.90;;;;;;5012460;28;20586;-70
2021/09/07 05:26:00;;;;;;;17.00;15.30;;;18.30;99.90;;;;;;5012646;28;20178;-72
2021/09/07 05:28:26;;;;;;;16.00;14.40;;;18.30;99.90;;;;;;5012935;28;20258;-69
2021/09/07 05:30:51;;;;;;;18.30;16.40;;;18.40;99.90;;;;;;5012446;28;20191;-69
2021/09/07 05:33:17;;;;;;;14.93;13.37;;;18.40;99.90;;;;;;5013042;28;20686;-69
2021/09/07 05:35:43;;;;;;;15.27;13.67;;;18.40;99.90;;;;;;5012424;28;20237;-69
2021/09/07 05:38:08;;;;;;;19.20;14.23;;;18.40;99.90;;;;;;5013087;28;20189;-69
2021/09/07 05:40:34;;;;;;;16.50;14.47;;;18.50;99.90;;;;;;5011910;28;20195;-77
2021/09/07 05:43:00;;;;;;;15.43;13.17;;;18.50;99.90;;;;;;5011772;28;20198;-70
2021/09/07 05:45:26;;;;;;;16.20;13.13;;;18.50;99.90;;;;;;5012362;28;20174;-68
2021/09/07 05:47:51;;;;;;;23.27;14.17;;;18.50;99.90;;;;;;5011581;28;20618;-69
2021/09/07 05:50:17;;;;;;;20.93;18.47;;;18.50;99.90;;;;;;5010940;28;20598;-70
2021/09/07 05:52:44;;;;;;;17.47;15.67;;;18.70;99.90;;;;;;5010302;28;20270;-70
2021/09/07 05:55:10;;;;;;;18.30;15.00;;;18.90;99.90;;;;;;5010031;28;20171;-70
2021/09/07 05:57:37;;;;;;;23.40;17.03;;;19.00;99.90;;;;;;5011982;28;20425;-70
2021/09/07 06:00:05;;;;;;;22.30;18.00;;;19.00;99.90;;;;;;5012449;28;20457;-70
2021/09/07 06:02:31;;;;;;;32.80;21.63;;;19.10;99.90;;;;;;5011961;28;20980;-68
2021/09/07 06:04:56;;;;;;;29.90;20.33;;;19.30;99.90;;;;;;5011863;28;20410;-69
2021/09/07 06:07:22;;;;;;;16.93;15.07;;;19.30;99.90;;;;;;5012034;28;20179;-69
2021/09/07 06:09:48;;;;;;;19.70;14.60;;;19.30;99.90;;;;;;5011567;28;20242;-69
2021/09/07 06:12:13;;;;;;;16.53;13.73;;;19.30;99.90;;;;;;5011565;28;20171;-69
2021/09/07 06:14:39;;;;;;;14.70;13.20;;;19.20;99.90;;;;;;5011384;28;20266;-80
2021/09/07 06:17:07;;;;;;;18.57;16.20;;;19.20;99.90;;;;;;5012294;28;20262;-69
2021/09/07 06:19:33;;;;;;;21.07;17.27;;;19.10;99.90;;;;;;5011931;28;20902;-69
2021/09/07 06:21:59;;;;;;;17.80;14.60;;;19.10;99.90;;;;;;5011169;28;20528;-69
2021/09/07 06:24:25;;;;;;;19.47;17.57;;;19.00;99.90;;;;;;5011349;28;20474;-69
2021/09/07 06:26:50;;;;;;;17.13;15.30;;;19.00;99.90;;;;;;5011219;28;20179;-69
2021/09/07 06:29:16;;;;;;;18.60;14.43;;;18.90;99.90;;;;;;5012074;28;20524;-69
2021/09/07 06:31:42;;;;;;;16.40;14.10;;;18.90;99.90;;;;;;5009691;28;20207;-69
2021/09/07 06:34:07;;;;;;;15.60;14.00;;;18.90;99.90;;;;;;5012073;28;20182;-69
2021/09/07 06:36:33;;;;;;;28.27;20.47;;;18.90;99.90;;;;;;5028285;28;20577;-68
2021/09/07 06:38:59;;;;;;;26.40;18.37;;;18.90;99.90;;;;;;5015447;28;20183;-68
2021/09/07 06:41:25;;;;;;;20.63;16.93;;;18.80;99.90;;;;;;5015507;28;20202;-69
2021/09/07 06:43:50;;;;;;;21.80;15.93;;;18.90;99.90;;;;;;5015176;28;20177;-68
2021/09/07 06:46:16;;;;;;;20.70;15.87;;;18.90;99.90;;;;;;5016184;28;20542;-68
2021/09/07 06:48:42;;;;;;;20.07;16.20;;;18.90;99.90;;;;;;5015415;28;20258;-68
2021/09/07 06:51:08;;;;;;;23.20;15.93;;;18.90;99.90;;;;;;5016049;28;20178;-68
2021/09/07 06:53:33;;;;;;;21.93;17.50;;;18.80;99.90;;;;;;5015737;28;20229;-68
2021/09/07 06:55:59;;;;;;;28.50;17.50;;;18.80;99.90;;;;;;5015313;28;20178;-68
2021/09/07 06:58:25;;;;;;;25.97;19.30;;;18.80;99.90;;;;;;5015891;28;20167;-68
2021/09/07 07:00:52;;;;;;;25.17;17.53;;;18.90;99.90;;;;;;5014855;28;20222;-68
2021/09/07 07:03:18;;;;;;;19.77;16.87;;;18.90;99.90;;;;;;5014759;28;20426;-68
2021/09/07 07:05:44;;;;;;;19.27;16.27;;;18.90;99.90;;;;;;5013545;28;20421;-70
2021/09/07 07:08:10;;;;;;;20.97;17.73;;;18.80;99.90;;;;;;5014805;28;20414;-69
2021/09/07 07:10:35;;;;;;;24.97;18.50;;;18.90;99.90;;;;;;5014971;28;20418;-68
2021/09/07 07:13:01;;;;;;;30.40;17.43;;;18.90;99.90;;;;;;5014598;28;20428;-68
2021/09/07 07:15:27;;;;;;;23.53;17.60;;;18.90;99.90;;;;;;5015113;28;20190;-69
2021/09/07 07:17:52;;;;;;;19.80;17.53;;;19.00;99.90;;;;;;5015256;28;20183;-68
2021/09/07 07:20:18;;;;;;;21.30;16.13;;;19.00;99.90;;;;;;5014537;28;20211;-68
2021/09/07 07:22:44;;;;;;;19.73;17.77;;;19.00;99.90;;;;;;5013874;28;20175;-69
2021/09/07 07:25:10;;;;;;;25.00;18.00;;;19.10;99.90;;;;;;5014529;28;20179;-68
2021/09/07 07:27:39;;;;;;;22.70;18.20;;;19.00;99.90;;;;;;5015267;28;20183;-69
2021/09/07 07:30:07;;;;;;;21.13;17.60;;;19.00;99.90;;;;;;5014703;28;20855;-68
2021/09/07 07:32:33;;;;;;;22.53;17.10;;;19.00;99.90;;;;;;5015074;28;20447;-68
2021/09/07 07:34:58;;;;;;;17.40;15.60;;;19.10;99.90;;;;;;5013690;28;20425;-70
2021/09/07 07:37:24;;;;;;;23.13;18.83;;;19.10;99.90;;;;;;5014578;28;20177;-68
2021/09/07 07:39:50;;;;;;;42.97;17.90;;;19.10;99.90;;;;;;5013921;28;20182;-69
2021/09/07 07:42:15;;;;;;;20.10;17.03;;;19.20;99.90;;;;;;5013065;28;20193;-69
2021/09/07 07:44:41;;;;;;;19.90;16.57;;;19.20;99.90;;;;;;5014008;28;20179;-78
2021/09/07 07:47:07;;;;;;;19.90;17.57;;;19.20;99.90;;;;;;5013663;28;20197;-68
2021/09/07 07:49:33;;;;;;;20.23;18.00;;;19.30;99.90;;;;;;5012632;28;20965;-69
2021/09/07 07:51:58;;;;;;;20.57;17.03;;;19.30;99.90;;;;;;5013643;28;20418;-68
2021/09/07 07:54:24;;;;;;;19.73;16.40;;;19.40;99.90;;;;;;5014775;28;20181;-69
2021/09/07 07:56:50;;;;;;;23.60;17.80;;;19.40;99.90;;;;;;5013889;28;20182;-71
2021/09/07 07:59:16;;;;;;;21.30;18.03;;;19.40;99.90;;;;;;5013892;28;20417;-71
2021/09/07 08:01:42;;;;;;;20.10;17.83;;;19.40;99.90;;;;;;5013776;28;20206;-80
2021/09/07 08:04:08;;;;;;;20.93;17.83;;;19.50;99.90;;;;;;5013305;28;20426;-71
2021/09/07 08:06:35;;;;;;;22.10;18.80;;;19.60;99.90;;;;;;5014382;28;20775;-70
2021/09/07 08:09:01;;;;;;;20.40;18.30;;;19.60;99.90;;;;;;5013723;28;20191;-69
2021/09/07 08:11:27;;;;;;;21.00;17.57;;;19.70;99.90;;;;;;5013189;28;20430;-69
2021/09/07 08:13:52;;;;;;;20.17;17.30;;;19.70;99.90;;;;;;5012873;28;20418;-70
2021/09/07 08:16:20;;;;;;;19.90;17.87;;;19.70;99.90;;;;;;5014433;28;20685;-69
2021/09/07 08:18:45;;;;;;;21.03;17.60;;;19.70;99.90;;;;;;5013799;28;20187;-69
2021/09/07 08:21:11;;;;;;;24.60;17.93;;;19.70;99.90;;;;;;5014265;28;20454;-69
2021/09/07 08:23:37;;;;;;;19.27;17.40;;;19.80;99.90;;;;;;5014379;28;20175;-69
2021/09/07 08:26:02;;;;;;;23.00;17.30;;;19.90;99.90;;;;;;5013580;28;20364;-69
2021/09/07 08:28:28;;;;;;;19.23;17.17;;;19.90;99.90;;;;;;5013029;28;20175;-69
2021/09/07 08:30:54;;;;;;;17.50;15.00;;;19.80;99.90;;;;;;5013168;28;20225;-70
2021/09/07 08:33:20;;;;;;;22.77;17.83;;;19.90;99.90;;;;;;5013414;28;20167;-69
2021/09/07 08:35:46;;;;;;;20.17;17.80;;;20.00;99.90;;;;;;5013422;28;20611;-70
2021/09/07 08:38:12;;;;;;;21.83;17.07;;;20.00;99.90;;;;;;5014084;28;20172;-69
2021/09/07 08:40:39;;;;;;;22.13;18.70;;;20.10;99.90;;;;;;5013744;28;20823;-69
2021/09/07 08:43:06;;;;;;;19.13;17.00;;;20.20;99.90;;;;;;5013274;28;20468;-69
2021/09/07 08:45:32;;;;;;;18.97;16.20;;;20.30;99.90;;;;;;5013819;28;20420;-70
2021/09/07 08:48:00;;;;;;;17.53;15.63;;;20.30;99.90;;;;;;5012447;28;20429;-70
2021/09/07 08:50:31;;;;;;;21.57;19.30;;;20.30;99.90;;;;;;5012309;28;20429;-69
2021/09/07 08:52:59;;;;;;;21.30;17.33;;;20.40;99.90;;;;;;5012953;28;20406;-69
2021/09/07 08:55:29;;;;;;;20.57;18.40;;;20.50;99.90;;;;;;5013572;28;20766;-69
2021/09/07 08:57:55;;;;;;;20.93;17.23;;;20.50;99.90;;;;;;5011645;28;20421;-70
2021/09/07 09:00:29;;;;;;;17.80;15.97;;;20.60;99.90;;;;;;5012748;28;20453;-69
2021/09/07 09:02:58;;;;;;;22.97;16.40;;;20.70;99.90;;;;;;5013061;28;20840;-69
2021/09/07 09:05:29;;;;;;;19.47;17.07;;;20.70;99.90;;;;;;5013433;28;20854;-69
2021/09/07 09:07:58;;;;;;;19.80;17.10;;;20.80;99.90;;;;;;5009624;28;20493;-69
2021/09/07 09:10:26;;;;;;;18.93;17.03;;;20.80;99.90;;;;;;5013246;28;20804;-69
2021/09/07 09:13:10;;;;;;;18.10;14.90;;;20.90;99.90;;;;;;5010412;28;20464;-69
2021/09/07 09:15:36;;;;;;;17.90;15.10;;;20.90;99.90;;;;;;5013020;28;20398;-69
2021/09/07 09:18:10;;;;;;;18.90;16.90;;;20.90;99.50;;;;;;5012353;28;20914;-69
2021/09/07 09:20:38;;;;;;;18.60;16.13;;;20.80;99.50;;;;;;5013134;28;20528;-69
2021/09/07 09:23:06;;;;;;;17.17;15.33;;;20.90;99.50;;;;;;5012174;28;20413;-69
2021/09/07 09:25:44;;;;;;;19.17;14.90;;;21.00;99.90;;;;;;5013198;28;20500;-69
2021/09/07 09:28:18;;;;;;;16.40;14.80;;;21.10;99.10;;;;;;5012707;28;20941;-69
2021/09/07 09:30:56;;;;;;;17.40;15.63;;;21.20;98.90;;;;;;5013342;28;20457;-69
2021/09/07 09:33:24;;;;;;;16.83;15.13;;;21.30;99.70;;;;;;5013219;28;20406;-69
2021/09/07 09:35:50;;;;;;;17.30;15.57;;;21.40;99.90;;;;;;5009684;28;20461;-69
2021/09/07 09:38:17;;;;;;;18.23;16.43;;;21.50;99.10;;;;;;5011890;28;20426;-69
2021/09/07 09:40:43;;;;;;;15.73;14.13;;;21.70;99.30;;;;;;5013855;28;20215;-70
2021/09/07 09:43:43;;;;;;;18.60;15.03;;;21.80;99.20;;;;;;5011551;28;20772;-70
2021/09/07 09:46:28;;;;;;;15.07;13.57;;;21.90;98.30;;;;;;5012334;28;20452;-70
2021/09/07 09:49:11;;;;;;;17.20;15.53;;;22.10;97.60;;;;;;5011849;28;20813;-70
2021/09/07 09:51:39;;;;;;;21.90;17.40;;;22.20;97.40;;;;;;5012517;28;20501;-70
2021/09/07 09:54:05;;;;;;;15.17;13.57;;;22.20;95.90;;;;;;5012266;28;20487;-70
2021/09/07 09:56:31;;;;;;;16.77;14.27;;;22.20;95.80;;;;;;5012580;28;20438;-70
2021/09/07 09:58:59;;;;;;;83.07;31.20;;;22.30;96.60;;;;;;5011307;28;20414;-70
2021/09/07 10:01:30;;;;;;;19.07;16.27;;;22.40;96.90;;;;;;5010925;28;20457;-70
2021/09/07 10:04:00;;;;;;;16.07;14.37;;;22.50;95.80;;;;;;5012056;28;20819;-70
2021/09/07 10:06:26;;;;;;;18.40;16.60;;;22.60;95.90;;;;;;5012101;28;20906;-70
2021/09/07 10:08:53;;;;;;;15.70;13.00;;;22.70;95.60;;;;;;5011853;28;20449;-70
2021/09/07 10:11:24;;;;;;;15.50;13.37;;;22.60;93.50;;;;;;5014213;28;20429;-70
2021/09/07 10:13:54;;;;;;;14.93;13.37;;;22.60;93.70;;;;;;5016248;28;20901;-71
2021/09/07 10:16:41;;;;;;;17.43;15.80;;;22.70;94.20;;;;;;5016370;28;20452;-70
2021/09/07 10:19:12;;;;;;;18.63;16.83;;;22.70;94.10;;;;;;5014789;28;20413;-69
2021/09/07 10:24:18;;;;;;;15.10;13.63;;;22.70;94.90;;;;;;5014640;28;20413;-69
2021/09/07 10:26:44;;;;;;;17.10;15.50;;;22.80;95.30;;;;;;5016483;28;20417;-69
2021/09/07 10:29:21;;;;;;;14.40;13.00;;;22.90;95.40;;;;;;5015944;28;20792;-69
2021/09/07 10:31:53;;;;;;;14.07;12.67;;;23.10;95.20;;;;;;5016322;28;20179;-69
2021/09/07 10:34:29;;;;;;;15.63;14.13;;;23.20;95.00;;;;;;5016066;28;20459;-69
2021/09/07 10:37:04;;;;;;;13.40;12.20;;;23.30;94.90;;;;;;5014021;28;20469;-70
2021/09/07 10:39:33;;;;;;;15.00;13.00;;;23.50;94.30;;;;;;5016248;28;20806;-70
2021/09/07 10:42:02;;;;;;;14.90;13.40;;;23.50;94.10;;;;;;5015513;28;20453;-70
2021/09/07 10:44:58;;;;;;;13.73;12.43;;;23.60;93.80;;;;;;5016092;28;20535;-73
2021/09/07 10:47:40;;;;;;;12.40;11.30;;;23.70;94.10;;;;;;5015991;28;20457;-69
2021/09/07 10:50:06;;;;;;;16.33;13.70;;;23.80;92.90;;;;;;5014585;28;20402;-70
2021/09/07 10:52:34;;;;;;;14.97;13.33;;;23.90;91.70;;;;;;5015915;28;20749;-70
2021/09/07 10:55:11;;;;;;;15.73;14.23;;;23.90;91.20;;;;;;5015307;28;20448;-70
2021/09/07 10:57:53;;;;;;;18.00;16.47;;;24.00;92.20;;;;;;5014876;28;20402;-69
2021/09/07 11:00:19;;;;;;;16.10;14.10;;;24.10;92.20;;;;;;5015831;28;20539;-70
2021/09/07 11:02:52;;;;;;;16.83;15.33;;;24.10;91.20;;;;;;5015778;28;20460;-70
2021/09/07 11:05:27;;;;;;;15.60;14.10;;;24.10;91.70;;;;;;5014652;28;20530;-70
2021/09/07 11:08:17;;;;;;;15.47;14.17;;;24.20;92.00;;;;;;5013219;28;20420;-71
2021/09/07 11:10:47;;;;;;;13.03;11.77;;;24.20;91.00;;;;;;5012363;28;20889;-70
2021/09/07 11:13:24;;;;;;;16.83;14.60;;;24.30;91.90;;;;;;5013548;28;21009;-70
2021/09/07 11:15:51;;;;;;;13.70;12.30;;;24.30;91.00;;;;;;5015508;28;20421;-69
2021/09/07 11:18:34;;;;;;;14.37;12.87;;;24.30;91.50;;;;;;5014753;28;20511;-70
2021/09/07 11:21:04;;;;;;;14.33;12.83;;;24.40;91.90;;;;;;5012992;28;20476;-70
2021/09/07 11:23:35;;;;;;;14.77;13.27;;;24.50;92.00;;;;;;5014561;28;20481;-69
2021/09/07 11:26:07;;;;;;;18.27;14.70;;;24.60;91.40;;;;;;5014915;28;20391;-70
2021/09/07 11:28:37;;;;;;;16.37;14.77;;;24.60;91.50;;;;;;5015033;28;20414;-69
2021/09/07 11:31:05;;;;;;;13.70;12.30;;;24.70;90.30;;;;;;5014621;28;20901;-69
2021/09/07 11:33:34;;;;;;;15.17;13.57;;;24.60;90.00;;;;;;5014051;28;20837;-69
2021/09/07 11:36:05;;;;;;;14.50;13.20;;;24.70;90.50;;;;;;5011219;28;20454;-70
2021/09/07 11:38:40;;;;;;;14.90;13.40;;;24.70;90.30;;;;;;5015055;28;20414;-70
2021/09/07 11:41:09;;;;;;;14.20;13.00;;;24.80;88.30;;;;;;5014151;28;20445;-70
2021/09/07 11:43:46;;;;;;;14.43;13.13;;;24.90;90.00;;;;;;4997273;28;20401;-69
2021/09/07 11:46:12;;;;;;;13.30;12.00;;;24.90;84.20;;;;;;5014183;28;20410;-69
2021/09/07 11:48:40;;;;;;;14.77;13.40;;;24.80;84.80;;;;;;5014897;28;20909;-69
2021/09/07 11:51:07;;;;;;;14.20;12.87;;;24.80;85.60;;;;;;5014344;28;20175;-69
2021/09/07 11:53:33;;;;;;;14.93;13.63;;;24.70;86.10;;;;;;5014805;28;20409;-69
2021/09/07 11:55:59;;;;;;;14.37;12.87;;;24.80;88.00;;;;;;5003000;28;20473;-69
2021/09/07 11:58:35;;;;;;;13.07;11.80;;;24.90;87.90;;;;;;4994862;28;20446;-69
2021/09/07 12:01:01;;;;;;;13.40;12.10;;;24.90;87.50;;;;;;4976975;28;21032;-71
2021/09/07 12:03:58;;;;;;;14.40;12.90;;;25.00;86.30;;;;;;4994791;28;20494;-69
2021/09/07 12:06:31;;;;;;;14.67;13.17;;;25.10;86.00;;;;;;4993480;28;20207;-69
2021/09/07 12:09:08;;;;;;;15.73;14.43;;;25.10;83.60;;;;;;4976596;28;20427;-70
2021/09/07 12:11:34;;;;;;;13.03;11.83;;;25.20;86.10;;;;;;4995179;28;20411;-69
2021/09/07 12:14:13;;;;;;;12.60;11.40;;;25.20;84.00;;;;;;4994305;28;20406;-69
2021/09/07 12:16:58;;;;;;;15.77;14.40;;;25.20;84.50;;;;;;4995062;28;20202;-69
2021/09/07 12:19:23;;;;;;;14.70;13.40;;;25.30;82.00;;;;;;4994512;28;20454;-69
2021/09/07 12:22:04;;;;;;;13.83;12.57;;;25.30;84.40;;;;;;4977212;28;20505;-69
2021/09/07 12:24:30;;;;;;;12.37;11.17;;;25.40;84.10;;;;;;4994691;28;20207;-69
2021/09/07 12:26:56;;;;;;;14.87;13.57;;;25.40;82.40;;;;;;4976453;28;20403;-69
2021/09/07 12:29:22;;;;;;;12.93;11.73;;;25.30;79.20;;;;;;4977302;28;20171;-69
2021/09/07 12:31:47;;;;;;;12.70;11.50;;;25.10;79.00;;;;;;4994847;28;20199;-69
2021/09/07 12:34:21;;;;;;;13.97;12.53;;;25.00;79.40;;;;;;4993737;28;20176;-69